Terminal Aerodrome Forecast
Issued by NWS

Home | Current Version | Previous Version | Text Only | Print | Product List | Glossary On
Versions: 1 2 3 4 5 6 7 8 9 10 11 12 13 14 15
000
FTUS45 KTFX 252300
TAFHVR
TAF
KHVR 252340Z 2600/2624 34012KT P6SM VCSH SCT040 OVC070
     FM260500 02005KT 6SM BR VCSH SCT020 OVC040
     FM261100 08005KT 4SM -SN BR SCT010 OVC020
      TEMPO 2613/2617 1SM -SN BR OVC010=

USA.gov is the U.S. government's official web portal to all federal, state and local government web resources and services.